CPS2 weather

Elmhirst's Resort Airport
Keene, Ontario, Canada

Public forecast

Using degrees Celsius for public forecast. Weather courtesy of forecast.io.

METAR (pilot weather report)

Closest report is Peterborough Airport, 11.1 nm (20.5 km) W. Retrieved 2019/04/23 04:00 UTC (25 minutes ago):

CYPQ 230400Z AUTO 05003KT 9SM BKN170 08/08 A3010 RMK SLP197

TAF (pilot weather forecast)

Forecast is more than 6 hours old.

Closest forecast is Peterborough Airport, 11.1 nm (20.5 km) W. Retrieved 2019/04/22 20:00 UTC (8 hours ago):

TAF CYPQ 221938Z 2220/2302 VRB03KT P6SM FEW120 RMK FCST BASED ON AUTO OBS. NXT FCST WILL BE ISSUED AT 230945Z